createdAt,value
2023-09-23T00:01:34.128Z,1.80
2023-09-23T00:06:36.202Z,2.40
2023-09-23T00:11:38.418Z,2.38
2023-09-23T00:16:40.346Z,2.50
2023-09-23T00:21:42.133Z,2.50
2023-09-23T00:26:44.939Z,2.67
2023-09-23T00:31:46.797Z,2.38
2023-09-23T00:36:48.637Z,1.83
2023-09-23T00:41:50.470Z,2.10
2023-09-23T00:46:52.312Z,1.88
2023-09-23T00:51:54.968Z,2.88
2023-09-23T00:56:59.586Z,3.03
2023-09-23T01:02:02.305Z,2.20
2023-09-23T01:07:04.060Z,2.17
2023-09-23T01:12:09.014Z,3.00
2023-09-23T01:17:11.512Z,2.45
2023-09-23T01:22:13.431Z,1.95
2023-09-23T01:27:19.376Z,2.63
2023-09-23T01:32:36.262Z,2.17
2023-09-23T01:37:39.168Z,2.55
2023-09-23T01:42:40.880Z,2.83
2023-09-23T01:47:43.140Z,2.53
2023-09-23T01:52:46.478Z,3.42
2023-09-23T01:57:51.230Z,2.47
2023-09-23T02:02:57.209Z,2.83
2023-09-23T02:08:00.311Z,2.83
2023-09-23T02:13:02.031Z,2.80
2023-09-23T02:18:05.563Z,2.83
2023-09-23T02:23:07.499Z,3.28
2023-09-23T02:28:10.871Z,2.55
2023-09-23T02:33:13.539Z,2.90
2023-09-23T02:38:15.413Z,2.63
2023-09-23T02:43:21.550Z,2.80
2023-09-23T02:48:23.516Z,2.87
2023-09-23T02:53:25.512Z,3.38
2023-09-23T02:58:27.228Z,3.03
2023-09-23T03:03:29.230Z,3.90
2023-09-23T03:08:31.967Z,2.22
2023-09-23T03:13:35.849Z,1.63
2023-09-23T03:18:43.348Z,1.48
2023-09-23T03:23:46.148Z,1.60
2023-09-23T03:28:48.276Z,1.30
2023-09-23T03:33:50.255Z,0.70
2023-09-23T03:38:52.865Z,1.05
2023-09-23T03:43:54.814Z,0.98
2023-09-23T03:48:56.784Z,0.40
2023-09-23T03:53:59.100Z,0.38
2023-09-23T03:59:02.098Z,0.95
2023-09-23T04:04:08.880Z,0.30
2023-09-23T04:09:14.610Z,0.32
2023-09-23T04:14:16.361Z,0.85
2023-09-23T04:19:18.064Z,0.43
2023-09-23T04:24:19.794Z,0.20
2023-09-23T04:29:21.756Z,0.10
2023-09-23T04:34:25.351Z,0.30
2023-09-23T04:39:27.088Z,0.82
2023-09-23T04:44:28.760Z,0.32
2023-09-23T04:49:30.528Z,0.20
2023-09-23T04:54:32.285Z,0.40
2023-09-23T04:59:34.031Z,0.55
2023-09-23T05:04:35.756Z,0.52
2023-09-23T05:09:38.484Z,0.55
2023-09-23T05:14:43.987Z,0.05
2023-09-23T05:19:49.228Z,1.40
2023-09-23T05:24:57.842Z,0.20
2023-09-23T05:29:59.714Z,0.22
2023-09-23T05:35:02.047Z,0.45
2023-09-23T05:40:24.448Z,0.25
2023-09-23T05:45:26.787Z,0.50
2023-09-23T05:50:28.995Z,0.47
2023-09-23T05:55:32.452Z,1.08
2023-09-23T06:00:34.977Z,0.35
2023-09-23T06:05:36.982Z,0.50
2023-09-23T06:10:40.146Z,0.30
2023-09-23T06:15:41.931Z,0.10
2023-09-23T06:20:43.881Z,0.80
2023-09-23T06:25:53.603Z,0.20
2023-09-23T06:30:55.347Z,0.60
2023-09-23T06:36:01.804Z,1.02
2023-09-23T06:41:06.044Z,0.77
2023-09-23T06:46:08.368Z,0.15
2023-09-23T06:51:10.337Z,0.10
2023-09-23T06:56:12.075Z,0.20
2023-09-23T07:01:14.061Z,0.20
2023-09-23T07:06:15.864Z,0.15
2023-09-23T07:11:18.204Z,0.30
2023-09-23T07:16:20.197Z,0.22
2023-09-23T07:21:21.981Z,0.10
2023-09-23T07:26:23.774Z,0.10
2023-09-23T07:31:25.508Z,0.93
2023-09-23T07:36:27.247Z,0.45
2023-09-23T07:41:29.016Z,0.38
2023-09-23T07:46:31.146Z,0.13
2023-09-23T07:51:32.836Z,0.10
2023-09-23T07:56:34.581Z,0.45
2023-09-23T08:01:36.443Z,0.10
2023-09-23T08:06:39.395Z,0.13
2023-09-23T08:11:41.258Z,0.47
2023-09-23T08:16:43.056Z,0.00
2023-09-23T08:21:46.881Z,0.10
2023-09-23T08:26:49.020Z,0.22
2023-09-23T08:31:52.036Z,0.08
2023-09-23T08:36:53.970Z,0.15
2023-09-23T08:41:58.482Z,0.10
2023-09-23T08:47:00.433Z,0.05
2023-09-23T08:52:04.073Z,0.10
2023-09-23T08:57:07.074Z,0.10
2023-09-23T09:02:08.958Z,0.25
2023-09-23T09:07:10.723Z,0.10
2023-09-23T09:12:12.563Z,0.05
2023-09-23T09:17:16.098Z,0.10
2023-09-23T09:22:20.791Z,0.30
2023-09-23T09:27:23.068Z,0.10
2023-09-23T09:32:32.615Z,0.20
2023-09-23T09:37:36.660Z,0.10
2023-09-23T09:42:41.225Z,0.25
2023-09-23T09:47:46.601Z,0.30
2023-09-23T09:52:48.513Z,0.20
2023-09-23T09:57:51.953Z,0.20
2023-09-23T10:03:14.447Z,0.10
2023-09-23T10:08:26.228Z,0.30
2023-09-23T10:13:32.686Z,0.47
2023-09-23T10:18:37.156Z,0.10
2023-09-23T10:23:42.368Z,0.13
2023-09-23T10:28:46.863Z,0.55
2023-09-23T10:33:48.784Z,0.30
2023-09-23T10:38:51.174Z,0.10
2023-09-23T10:43:55.234Z,0.15
2023-09-23T10:48:57.466Z,0.08
2023-09-23T10:54:00.659Z,0.10
2023-09-23T10:59:05.702Z,0.20
2023-09-23T11:04:07.921Z,0.40
2023-09-23T11:09:09.898Z,0.20
2023-09-23T11:14:15.804Z,0.73
2023-09-23T11:19:18.759Z,0.10
2023-09-23T11:24:20.537Z,0.00
2023-09-23T11:29:22.675Z,0.10
2023-09-23T11:34:24.751Z,0.20
2023-09-23T11:39:26.793Z,0.38
2023-09-23T11:44:30.673Z,0.45
2023-09-23T11:49:32.760Z,0.10
2023-09-23T11:54:35.019Z,0.35
2023-09-23T11:59:37.416Z,0.45
2023-09-23T12:04:39.609Z,0.03
2023-09-23T12:09:41.795Z,0.05
2023-09-23T12:14:46.594Z,0.20
2023-09-23T12:19:48.722Z,0.10
2023-09-23T12:24:51.078Z,0.20
2023-09-23T12:29:52.809Z,0.25
2023-09-23T12:34:54.656Z,0.20
2023-09-23T12:39:59.046Z,0.20
2023-09-23T12:45:02.336Z,0.10
2023-09-23T12:50:08.398Z,0.10
2023-09-23T12:55:10.437Z,0.20
2023-09-23T13:00:12.819Z,0.70
2023-09-23T13:05:18.038Z,0.57
2023-09-23T13:10:20.054Z,0.17
2023-09-23T13:15:22.751Z,0.80
2023-09-23T13:20:24.656Z,0.10
2023-09-23T13:25:26.727Z,0.20
2023-09-23T13:30:29.096Z,0.20
2023-09-23T13:35:30.907Z,0.13
2023-09-23T13:40:34.581Z,0.30
2023-09-23T13:45:37.868Z,0.17
2023-09-23T13:50:40.695Z,0.35
2023-09-23T13:55:42.520Z,0.20
2023-09-23T14:00:44.473Z,0.40
2023-09-23T14:05:46.442Z,0.75
2023-09-23T14:10:48.652Z,0.28
2023-09-23T14:15:50.429Z,0.30
2023-09-23T14:20:52.399Z,0.50
2023-09-23T14:25:54.730Z,0.70
2023-09-23T14:30:57.788Z,0.35
2023-09-23T14:36:01.354Z,0.40
2023-09-23T14:41:03.235Z,0.30
2023-09-23T14:46:05.656Z,1.35
2023-09-23T14:51:07.798Z,0.80
2023-09-23T14:56:09.932Z,0.25
2023-09-23T15:01:11.677Z,0.55
2023-09-23T15:06:13.822Z,0.32
2023-09-23T15:11:17.220Z,0.20
2023-09-23T15:16:19.421Z,0.38
2023-09-23T15:21:22.612Z,0.73
2023-09-23T15:26:25.261Z,0.60
2023-09-23T15:31:27.144Z,0.30
2023-09-23T15:36:28.947Z,0.43
2023-09-23T15:41:31.071Z,0.10
2023-09-23T15:46:33.015Z,0.88
2023-09-23T15:51:35.070Z,0.30
2023-09-23T15:56:40.850Z,0.95
2023-09-23T16:01:42.975Z,2.17
2023-09-23T16:06:44.717Z,0.43
2023-09-23T16:11:46.534Z,0.77
2023-09-23T16:16:49.037Z,2.50
2023-09-23T16:21:52.648Z,6.25
2023-09-23T16:26:54.432Z,1.83
2023-09-23T16:31:56.185Z,1.08
2023-09-23T16:36:58.004Z,0.22
2023-09-23T16:41:59.735Z,0.47
2023-09-23T16:47:01.627Z,1.33
2023-09-23T16:52:04.419Z,2.05
2023-09-23T16:57:06.229Z,2.88
2023-09-23T17:02:09.516Z,1.08
2023-09-23T17:07:14.482Z,1.00
2023-09-23T17:12:16.384Z,0.85
2023-09-23T17:17:19.003Z,0.60
2023-09-23T17:22:20.700Z,1.30
2023-09-23T17:27:22.402Z,0.30
2023-09-23T17:32:24.302Z,0.57
2023-09-23T17:37:26.260Z,0.20
2023-09-23T17:42:28.286Z,1.30
2023-09-23T17:47:30.256Z,0.73
2023-09-23T17:52:32.139Z,0.60
2023-09-23T17:57:34.049Z,0.43
2023-09-23T18:02:35.982Z,0.80
2023-09-23T18:07:39.220Z,0.60
2023-09-23T18:12:41.858Z,0.60
2023-09-23T18:17:43.969Z,0.75
2023-09-23T18:22:46.497Z,0.70
2023-09-23T18:27:48.279Z,0.98
2023-09-23T18:32:50.906Z,0.98
2023-09-23T18:37:53.814Z,1.27
2023-09-23T18:42:56.047Z,0.75
2023-09-23T18:48:12.731Z,0.75
2023-09-23T18:53:19.831Z,0.68
2023-09-23T18:58:21.985Z,0.73
2023-09-23T19:03:24.092Z,0.82
2023-09-23T19:08:26.292Z,1.15
2023-09-23T19:13:31.155Z,1.50
2023-09-23T19:18:32.950Z,0.60
2023-09-23T19:23:34.914Z,0.63
2023-09-23T19:28:37.293Z,1.45
2023-09-23T19:33:40.935Z,0.70
2023-09-23T19:38:42.839Z,0.70
2023-09-23T19:43:44.840Z,1.75
2023-09-23T19:48:47.767Z,0.95
2023-09-23T19:53:49.994Z,1.00
2023-09-23T19:58:52.158Z,0.95
2023-09-23T20:03:54.040Z,0.80
2023-09-23T20:08:55.941Z,0.73
2023-09-23T20:13:57.984Z,0.68
2023-09-23T20:19:00.400Z,0.85
2023-09-23T20:24:04.141Z,0.82
2023-09-23T20:29:06.091Z,0.70
2023-09-23T20:34:08.192Z,0.95
2023-09-23T20:39:10.248Z,1.02
2023-09-23T20:44:12.250Z,0.50
2023-09-23T20:49:15.327Z,0.65
2023-09-23T20:54:16.972Z,0.70
2023-09-23T20:59:18.722Z,1.17
2023-09-23T21:04:20.564Z,1.67
2023-09-23T21:09:22.562Z,0.45
2023-09-23T21:14:26.277Z,0.57
2023-09-23T21:19:29.158Z,0.73
2023-09-23T21:24:30.911Z,0.57
2023-09-23T21:29:32.677Z,1.58
2023-09-23T21:34:34.603Z,1.23
2023-09-23T21:39:36.288Z,1.02
2023-09-23T21:44:38.241Z,0.73
2023-09-23T21:49:39.936Z,1.02
2023-09-23T21:54:41.770Z,0.73
2023-09-23T21:59:44.293Z,1.67
2023-09-23T22:04:47.199Z,0.88
2023-09-23T22:09:49.344Z,0.82
2023-09-23T22:14:51.077Z,2.28
2023-09-23T22:19:54.038Z,0.65
2023-09-23T22:24:56.453Z,0.65
2023-09-23T22:30:01.386Z,1.17
2023-09-23T22:35:04.075Z,1.08
2023-09-23T22:40:10.643Z,0.50
2023-09-23T22:45:23.570Z,1.50
2023-09-23T22:50:30.019Z,1.42
2023-09-23T22:55:33.923Z,1.10
2023-09-23T23:00:37.369Z,1.15
2023-09-23T23:05:39.692Z,0.45
2023-09-23T23:10:42.042Z,1.88
2023-09-23T23:15:44.119Z,0.65
2023-09-23T23:20:48.091Z,0.82
2023-09-23T23:25:50.102Z,1.13
2023-09-23T23:35:58.494Z,1.27
2023-09-23T23:41:02.739Z,1.85
2023-09-23T23:46:05.173Z,1.40
2023-09-23T23:51:10.548Z,1.58
2023-09-23T23:56:14.079Z,1.02
